Time;durP1;ratioP1;P1;durP2;ratioP2;P2;SDS_P1;SDS_P2;PMS_P1;PMS_P2;Temp;Humidity;BMP_temperature;BMP_pressure;BME280_temperature;BME280_humidity;BME280_pressure;Samples;Min_cycle;Max_cycle;Signal;HPM_P1;HPM_P2
2021/11/01 00:00:57;;;;;;;18.43;2.80;;;11.90;99.90;;;;;;5137897;27;37330;-74
2021/11/01 00:03:23;;;;;;;23.23;3.60;;;11.90;99.90;;;;;;5131003;27;38942;-73
2021/11/01 00:05:50;;;;;;;29.97;4.23;;;11.90;99.90;;;;;;5122444;27;36648;-75
2021/11/01 00:08:16;;;;;;;17.17;2.97;;;11.90;99.90;;;;;;5118961;27;39205;-74
2021/11/01 00:10:43;;;;;;;25.53;3.40;;;11.90;99.90;;;;;;5117240;27;39133;-73
2021/11/01 00:13:09;;;;;;;25.30;3.90;;;11.90;99.90;;;;;;5131568;27;35693;-74
2021/11/01 00:15:36;;;;;;;17.53;3.03;;;11.80;99.90;;;;;;5123955;27;37667;-73
2021/11/01 00:18:03;;;;;;;17.43;2.93;;;11.80;99.90;;;;;;5129363;27;38782;-75
2021/11/01 00:20:29;;;;;;;19.83;2.87;;;11.80;99.90;;;;;;5126135;27;39863;-73
2021/11/01 00:22:55;;;;;;;16.97;3.60;;;11.80;99.90;;;;;;5123542;27;38296;-73
2021/11/01 00:25:22;;;;;;;18.70;2.70;;;11.80;99.90;;;;;;5116207;27;38959;-73
2021/11/01 00:27:48;;;;;;;14.73;2.93;;;11.80;99.90;;;;;;5113666;27;39524;-73
2021/11/01 00:30:15;;;;;;;16.97;3.90;;;11.90;99.90;;;;;;5127633;27;38606;-73
2021/11/01 00:32:42;;;;;;;16.33;2.90;;;11.80;99.90;;;;;;5124773;27;40544;-73
2021/11/01 00:35:08;;;;;;;11.73;2.80;;;11.80;99.90;;;;;;5144837;27;38878;-73
2021/11/01 00:37:34;;;;;;;18.00;2.47;;;11.80;99.90;;;;;;5124233;27;37327;-73
2021/11/01 00:40:01;;;;;;;23.37;3.13;;;11.70;99.90;;;;;;5129221;27;37265;-76
2021/11/01 00:42:27;;;;;;;14.90;2.43;;;11.60;99.90;;;;;;5124090;27;47498;-73
2021/11/01 00:44:54;;;;;;;18.13;2.60;;;11.60;99.90;;;;;;5110428;27;36830;-73
2021/11/01 00:47:24;;;;;;;14.90;3.30;;;11.60;99.90;;;;;;5109407;27;37838;-75
2021/11/01 00:49:50;;;;;;;21.30;2.70;;;11.60;99.90;;;;;;5118620;27;37216;-73
2021/11/01 00:52:22;;;;;;;16.03;2.47;;;11.70;99.90;;;;;;5122332;27;38724;-73
2021/11/01 00:54:50;;;;;;;28.03;3.87;;;11.70;99.90;;;;;;5126089;27;37123;-73
2021/11/01 00:57:17;;;;;;;13.60;2.67;;;11.70;99.90;;;;;;5125410;27;39708;-74
2021/11/01 00:59:43;;;;;;;25.03;3.27;;;11.60;99.90;;;;;;5109421;27;38327;-74
2021/11/01 01:02:11;;;;;;;20.30;2.23;;;11.60;99.90;;;;;;5141920;27;38204;-73
2021/11/01 01:04:37;;;;;;;25.83;3.20;;;11.60;99.90;;;;;;5107057;27;39041;-73
2021/11/01 01:07:06;;;;;;;26.40;3.00;;;11.60;99.90;;;;;;5118487;27;39605;-73
2021/11/01 01:09:32;;;;;;;13.50;2.00;;;11.60;99.90;;;;;;5123384;27;40223;-74
2021/11/01 01:11:58;;;;;;;17.40;2.83;;;11.60;99.90;;;;;;5131171;27;37659;-73
2021/11/01 01:14:30;;;;;;;14.67;2.20;;;11.60;99.90;;;;;;5132861;27;38209;-74
2021/11/01 01:16:58;;;;;;;19.53;2.67;;;11.60;99.90;;;;;;5116015;27;39541;-73
2021/11/01 01:19:30;;;;;;;15.17;2.40;;;11.60;99.90;;;;;;5112146;27;37436;-73
2021/11/01 01:22:19;;;;;;;15.07;2.63;;;11.70;99.90;;;;;;5128316;27;39673;-72
2021/11/01 01:24:45;;;;;;;15.13;2.63;;;11.70;99.90;;;;;;5123818;27;47536;-72
2021/11/01 01:27:11;;;;;;;15.50;2.73;;;11.60;99.90;;;;;;5125250;27;37954;-74
2021/11/01 01:29:37;;;;;;;18.50;3.03;;;11.70;99.90;;;;;;5124336;27;37442;-74
2021/11/01 01:32:06;;;;;;;15.07;2.37;;;11.60;99.90;;;;;;5126279;27;36801;-72
2021/11/01 01:34:32;;;;;;;11.33;3.20;;;11.60;99.90;;;;;;5148120;27;37726;-73
2021/11/01 01:36:59;;;;;;;16.63;2.23;;;11.60;99.90;;;;;;5121825;27;39121;-74
2021/11/01 01:39:25;;;;;;;13.17;2.30;;;11.60;99.90;;;;;;5143344;27;38143;-73
2021/11/01 01:41:52;;;;;;;18.97;2.40;;;11.60;99.90;;;;;;5154039;27;37801;-73
2021/11/01 01:44:18;;;;;;;10.73;2.13;;;11.60;99.90;;;;;;5133085;27;36154;-73
2021/11/01 01:46:44;;;;;;;14.93;2.33;;;11.50;99.90;;;;;;5131392;27;37663;-73
2021/11/01 01:49:10;;;;;;;14.57;2.57;;;11.50;99.90;;;;;;5131223;27;38874;-72
2021/11/01 01:51:37;;;;;;;15.77;3.03;;;11.50;99.90;;;;;;5130432;27;37827;-73
2021/11/01 01:54:04;;;;;;;18.27;2.13;;;11.50;99.90;;;;;;5132972;27;36100;-74
2021/11/01 01:56:30;;;;;;;9.17;2.03;;;11.50;99.90;;;;;;5146731;27;39075;-73
2021/11/01 01:59:01;;;;;;;18.47;2.30;;;11.40;99.90;;;;;;5130072;27;38030;-75
2021/11/01 02:01:27;;;;;;;12.47;2.30;;;11.50;99.90;;;;;;5120949;27;37652;-73
2021/11/01 02:03:54;;;;;;;20.20;3.23;;;11.40;99.90;;;;;;5127715;27;37283;-73
2021/11/01 02:06:46;;;;;;;16.57;2.63;;;11.40;99.90;;;;;;5128915;27;39788;-73
2021/11/01 02:09:30;;;;;;;14.73;2.30;;;11.40;99.90;;;;;;5127326;27;37952;-73
2021/11/01 02:12:12;;;;;;;12.60;2.30;;;11.40;99.90;;;;;;5111551;27;38602;-73
2021/11/01 02:14:53;;;;;;;12.27;1.98;;;11.30;99.90;;;;;;5134857;27;48398;-75
2021/11/01 02:17:26;;;;;;;13.80;2.67;;;11.30;99.90;;;;;;5108135;27;39394;-75
2021/11/01 02:19:55;;;;;;;13.37;2.07;;;11.30;99.90;;;;;;5115057;27;39592;-74
2021/11/01 02:22:23;;;;;;;13.00;2.80;;;11.30;99.90;;;;;;5142187;27;38307;-74
2021/11/01 02:25:04;;;;;;;12.23;2.43;;;11.40;99.90;;;;;;5129538;27;36895;-74
2021/11/01 02:27:32;;;;;;;14.07;1.80;;;11.30;99.90;;;;;;5125902;27;47003;-74
2021/11/01 02:30:00;;;;;;;10.77;1.97;;;11.30;99.90;;;;;;5124185;27;39116;-74
2021/11/01 02:32:27;;;;;;;11.77;3.43;;;11.40;99.90;;;;;;5125260;27;37799;-74
2021/11/01 02:34:54;;;;;;;15.93;2.23;;;11.40;99.90;;;;;;5127715;27;36962;-75
2021/11/01 02:37:21;;;;;;;21.33;3.13;;;11.50;99.90;;;;;;5125524;27;38619;-74
2021/11/01 02:39:56;;;;;;;14.50;2.70;;;11.50;99.90;;;;;;5132867;27;39190;-74
2021/11/01 02:42:25;;;;;;;12.97;2.10;;;11.50;99.90;;;;;;5124328;27;39112;-75
2021/11/01 02:45:07;;;;;;;16.80;2.87;;;11.50;99.90;;;;;;5129329;27;37818;-76
2021/11/01 02:47:34;;;;;;;14.73;2.50;;;11.60;99.90;;;;;;5123366;27;47118;-74
2021/11/01 02:50:03;;;;;;;11.77;2.63;;;11.50;99.90;;;;;;5125041;27;38576;-75
2021/11/01 02:52:31;;;;;;;12.03;2.40;;;11.50;99.90;;;;;;5126404;27;48223;-76
2021/11/01 02:54:57;;;;;;;11.93;2.23;;;11.50;99.90;;;;;;5130618;27;37448;-76
2021/11/01 02:57:23;;;;;;;16.60;2.50;;;11.40;99.90;;;;;;5119672;27;39453;-75
2021/11/01 02:59:50;;;;;;;19.03;2.57;;;11.30;99.90;;;;;;5126431;27;39995;-75
2021/11/01 03:02:17;;;;;;;14.90;2.23;;;11.40;99.90;;;;;;5122910;27;38861;-75
2021/11/01 03:04:44;;;;;;;18.27;2.37;;;11.40;99.90;;;;;;5125168;27;37269;-76
2021/11/01 03:07:11;;;;;;;12.43;2.27;;;11.50;99.90;;;;;;5123560;27;39908;-75
2021/11/01 03:09:40;;;;;;;12.03;2.30;;;11.40;99.90;;;;;;5125675;27;38740;-75
2021/11/01 03:12:09;;;;;;;11.30;2.47;;;11.40;99.90;;;;;;5126268;27;37074;-75
2021/11/01 03:14:46;;;;;;;13.93;2.60;;;11.50;99.90;;;;;;5130413;27;37308;-75
2021/11/01 03:17:15;;;;;;;14.47;2.37;;;11.50;99.90;;;;;;5123231;27;39057;-76
2021/11/01 03:19:46;;;;;;;15.37;2.50;;;11.50;99.90;;;;;;5115546;27;40120;-75
2021/11/01 03:22:13;;;;;;;13.83;2.20;;;11.50;99.90;;;;;;5117647;27;37617;-75
2021/11/01 03:24:41;;;;;;;17.83;2.53;;;11.50;99.90;;;;;;5112084;27;35035;-75
2021/11/01 03:27:09;;;;;;;12.23;1.90;;;11.40;99.90;;;;;;5107456;27;37670;-74
2021/11/01 03:29:36;;;;;;;19.97;2.67;;;11.40;99.90;;;;;;5125716;27;39616;-74
2021/11/01 03:32:06;;;;;;;15.07;2.70;;;11.30;99.90;;;;;;5112417;27;38977;-76
2021/11/01 03:34:33;;;;;;;15.73;2.97;;;11.30;99.90;;;;;;5128111;27;39194;-75
2021/11/01 03:37:07;;;;;;;18.37;2.30;;;11.20;99.90;;;;;;5127120;27;38062;-75
2021/11/01 03:39:33;;;;;;;12.60;2.33;;;11.20;99.90;;;;;;5122051;27;48780;-75
2021/11/01 03:42:01;;;;;;;18.83;2.73;;;11.20;99.90;;;;;;5126075;27;38682;-75
2021/11/01 03:44:30;;;;;;;14.80;3.33;;;11.20;99.90;;;;;;5124736;27;46869;-72
2021/11/01 03:47:01;;;;;;;16.90;2.60;;;11.20;99.90;;;;;;5123101;27;39468;-74
2021/11/01 03:49:29;;;;;;;20.77;2.43;;;11.20;99.90;;;;;;5123154;27;46823;-74
2021/11/01 03:52:09;;;;;;;17.03;2.70;;;11.20;99.90;;;;;;5129035;27;37961;-73
2021/11/01 03:54:37;;;;;;;18.23;3.27;;;11.20;99.90;;;;;;5114888;27;47437;-73
2021/11/01 03:57:08;;;;;;;16.53;2.93;;;11.20;99.90;;;;;;5122538;27;37743;-73
2021/11/01 03:59:35;;;;;;;16.17;2.30;;;11.20;99.90;;;;;;5113458;27;37705;-73
2021/11/01 04:02:02;;;;;;;19.83;3.17;;;11.20;99.90;;;;;;5118552;27;35222;-75
2021/11/01 04:04:28;;;;;;;14.90;2.30;;;11.30;99.90;;;;;;5139814;27;47207;-74
2021/11/01 04:06:56;;;;;;;11.17;1.97;;;11.50;99.90;;;;;;5124783;27;38916;-75
2021/11/01 04:09:22;;;;;;;20.13;2.30;;;11.50;99.90;;;;;;5127621;27;38524;-75
2021/11/01 04:11:52;;;;;;;19.20;2.67;;;11.50;99.90;;;;;;5124231;27;37538;-76
2021/11/01 04:14:22;;;;;;;16.63;2.63;;;11.50;99.90;;;;;;5129089;27;36224;-78
2021/11/01 04:16:56;;;;;;;14.00;2.67;;;11.50;99.90;;;;;;5126542;27;39080;-76
2021/11/01 04:21:52;;;;;;;11.03;1.90;;;11.40;99.90;;;;;;5129934;27;38064;-76
2021/11/01 04:24:20;;;;;;;17.30;2.40;;;11.40;99.90;;;;;;5111820;27;36230;-76
2021/11/01 04:26:48;;;;;;;21.53;2.50;;;11.30;99.90;;;;;;5112661;27;37724;-74
2021/11/01 04:29:14;;;;;;;19.80;3.53;;;11.30;99.90;;;;;;5132570;27;38401;-74
2021/11/01 04:31:44;;;;;;;15.80;3.30;;;11.20;99.90;;;;;;5111924;27;38250;-74
2021/11/01 04:34:27;;;;;;;22.83;2.17;;;11.20;99.90;;;;;;5109017;27;36636;-75
2021/11/01 04:36:55;;;;;;;16.37;3.10;;;11.20;99.90;;;;;;5111126;27;38254;-76
2021/11/01 04:52:57;;;;;;;14.43;2.00;;;11.10;99.90;;;;;;5128815;27;39242;-74
2021/11/01 04:53:06;;;;;;;16.27;2.70;;;11.10;99.90;;;;;;5133413;27;48506;-74
2021/11/01 04:55:33;;;;;;;10.27;2.80;;;11.10;99.90;;;;;;5122718;27;49165;-72
2021/11/01 04:57:59;;;;;;;11.80;2.33;;;11.20;99.90;;;;;;5130842;27;38959;-74
2021/11/01 05:00:26;;;;;;;19.47;3.23;;;11.20;99.90;;;;;;5129176;27;38937;-72
2021/11/01 05:03:56;;;;;;;12.47;2.13;;;11.20;99.90;;;;;;5126169;27;37103;-73
2021/11/01 05:05:48;;;;;;;16.93;2.80;;;11.20;99.90;;;;;;5122301;27;49226;-74
2021/11/01 05:08:16;;;;;;;13.40;2.20;;;11.30;99.90;;;;;;5126941;27;37841;-73
2021/11/01 05:10:45;;;;;;;15.97;1.90;;;11.20;99.90;;;;;;5123241;27;36620;-73
2021/11/01 05:13:27;;;;;;;13.23;1.90;;;11.30;99.90;;;;;;5122254;27;41462;-73
2021/11/01 05:18:48;;;;;;;18.13;2.27;;;11.30;99.90;;;;;;5124128;27;48977;-73
2021/11/01 05:21:34;;;;;;;16.67;2.53;;;11.30;99.90;;;;;;5128674;27;39068;-73
2021/11/01 05:24:08;;;;;;;11.33;2.07;;;11.30;99.90;;;;;;5132463;27;37905;-74
2021/11/01 05:29:04;;;;;;;16.57;1.93;;;11.30;99.90;;;;;;5129902;27;39400;-73
2021/11/01 05:31:31;;;;;;;18.50;3.33;;;11.20;99.90;;;;;;5123372;27;47124;-73
2021/11/01 05:36:26;;;;;;;18.43;2.63;;;11.20;99.90;;;;;;5125374;27;41172;-72
2021/11/01 05:38:53;;;;;;;15.03;2.30;;;11.20;99.90;;;;;;5126590;27;41495;-72
2021/11/01 05:41:19;;;;;;;11.70;3.83;;;11.20;99.90;;;;;;5120678;27;38869;-75
2021/11/01 05:43:46;;;;;;;21.07;2.73;;;11.20;99.90;;;;;;5120090;27;37184;-74
2021/11/01 05:46:13;;;;;;;13.90;3.10;;;11.20;99.90;;;;;;5119722;27;35279;-73
2021/11/01 05:48:46;;;;;;;20.97;2.63;;;11.10;99.90;;;;;;5121608;27;38583;-73
2021/11/01 05:51:15;;;;;;;10.53;2.40;;;11.00;99.90;;;;;;5119657;27;36045;-73
2021/11/01 05:53:43;;;;;;;13.20;1.83;;;11.00;99.90;;;;;;5111485;27;39043;-73
2021/11/01 05:56:30;;;;;;;16.57;2.73;;;11.00;99.90;;;;;;5112081;27;36197;-72
2021/11/01 06:14:43;;;;;;;18.43;3.13;;;10.70;99.90;;;;;;5136674;27;49333;-74
2021/11/01 06:17:10;;;;;;;17.10;2.37;;;10.80;99.90;;;;;;5149977;27;37132;-73
2021/11/01 06:19:36;;;;;;;14.70;2.23;;;10.80;99.90;;;;;;5142591;27;37991;-73
2021/11/01 06:22:02;;;;;;;15.53;2.20;;;10.80;99.90;;;;;;5139234;27;39062;-73
2021/11/01 06:26:55;;;;;;;11.00;2.13;;;10.90;99.90;;;;;;5137622;27;38378;-74
2021/11/01 06:29:27;;;;;;;9.30;1.90;;;10.90;99.90;;;;;;5140361;27;39718;-76
2021/11/01 06:32:26;;;;;;;;;;;10.90;99.90;;;;;;5143364;27;38452;-74
2021/11/01 06:40:24;;;;;;;12.30;2.33;;;11.00;99.90;;;;;;5157914;27;37920;-74
2021/11/01 06:45:32;;;;;;;11.53;1.93;;;11.10;99.90;;;;;;5134609;27;49487;-74
2021/11/01 06:50:58;;;;;;;11.70;1.87;;;11.20;99.90;;;;;;5134455;27;47478;-73
2021/11/01 06:56:16;;;;;;;11.30;3.57;;;11.20;99.90;;;;;;5134313;27;39043;-74
2021/11/01 07:14:08;;;;;;;14.03;1.90;;;11.40;99.90;;;;;;5136278;27;38419;-75
2021/11/01 07:15:32;;;;;;;7.57;1.83;;;11.50;99.90;;;;;;5134340;27;38925;-73
2021/11/01 07:20:54;;;;;;;5.70;1.67;;;11.70;99.90;;;;;;5136492;27;48694;-75
2021/11/01 07:23:44;;;;;;;8.30;2.33;;;11.80;99.90;;;;;;5115463;27;38121;-74
2021/11/01 08:49:04;;;;;;;12.33;2.13;;;11.60;99.90;;;;;;5142723;27;40113;-74
2021/11/01 09:05:59;;;;;;;6.87;1.43;;;11.80;99.90;;;;;;5141498;27;49089;-74
2021/11/01 09:22:12;;;;;;;10.17;1.50;;;12.10;99.90;;;;;;5136088;27;49290;-73
2021/11/01 09:24:54;;;;;;;12.93;1.70;;;12.10;99.90;;;;;;5141276;27;48588;-74
2021/11/01 09:27:23;;;;;;;14.43;1.45;;;12.20;99.90;;;;;;5138155;27;38144;-77
2021/11/01 09:30:10;;;;;;;7.03;1.00;;;12.30;99.90;;;;;;5129207;27;39006;-75
2021/11/01 09:35:48;;;;;;;4.77;1.10;;;12.30;99.90;;;;;;5128365;27;39532;-73
2021/11/01 09:43:24;;;;;;;9.73;1.10;;;12.20;99.90;;;;;;5135204;27;38780;-75
2021/11/01 09:46:14;;;;;;;9.70;1.70;;;12.20;99.90;;;;;;5136757;27;37552;-76
2021/11/01 09:48:41;;;;;;;5.23;1.10;;;12.10;99.90;;;;;;5140496;27;47867;-74
2021/11/01 09:51:11;;;;;;;7.93;1.43;;;12.10;99.90;;;;;;5147083;27;37047;-74
2021/11/01 09:53:44;;;;;;;10.17;1.37;;;12.10;99.90;;;;;;5145466;27;37842;-74
2021/11/01 09:59:11;;;;;;;7.10;1.37;;;12.20;99.90;;;;;;5144883;27;39610;-75
2021/11/01 10:01:43;;;;;;;10.10;1.90;;;12.30;99.90;;;;;;5140463;27;47366;-76
2021/11/01 10:04:25;;;;;;;11.73;1.40;;;12.40;99.90;;;;;;5147773;27;37983;-73
2021/11/01 10:07:18;;;;;;;9.38;1.45;;;12.50;99.90;;;;;;5146444;27;37983;-74
2021/11/01 10:09:47;;;;;;;;;;;12.50;99.90;;;;;;5140821;27;47515;-77
2021/11/01 10:12:22;;;;;;;6.23;0.93;;;12.50;99.90;;;;;;5138398;27;37369;-76
2021/11/01 10:14:59;;;;;;;11.63;1.30;;;12.50;99.90;;;;;;5137371;27;38782;-77
2021/11/01 10:17:35;;;;;;;6.93;1.70;;;12.60;99.90;;;;;;5139771;27;38376;-75
2021/11/01 10:20:08;;;;;;;7.37;1.10;;;12.70;99.90;;;;;;5138370;27;38392;-73
2021/11/01 10:22:36;;;;;;;7.03;1.63;;;12.80;99.90;;;;;;5141692;27;47420;-76
2021/11/01 10:25:05;;;;;;;6.82;1.50;;;12.80;99.90;;;;;;5147223;27;39906;-75
2021/11/01 10:27:36;;;;;;;9.60;1.25;;;12.90;99.90;;;;;;5145261;27;47188;-74
2021/11/01 10:30:05;;;;;;;10.07;1.85;;;12.90;99.90;;;;;;5122182;27;37180;-74
2021/11/01 10:32:38;;;;;;;10.15;1.38;;;12.90;99.90;;;;;;5140014;27;35741;-76
2021/11/01 10:35:21;;;;;;;7.75;1.42;;;12.90;99.90;;;;;;5128083;27;37823;-74
2021/11/01 10:38:19;;;;;;;7.95;1.30;;;12.90;99.90;;;;;;5147105;27;39447;-74
2021/11/01 10:41:22;;;;;;;6.60;1.50;;;12.90;99.90;;;;;;5138815;27;49283;-76
2021/11/01 10:44:11;;;;;;;5.18;1.20;;;13.00;99.90;;;;;;5142765;27;48853;-75
2021/11/01 11:19:58;;;;;;;6.80;1.88;;;13.50;99.90;;;;;;5149355;27;39924;-76
2021/11/01 11:47:25;;;;;;;5.97;1.15;;;14.00;99.90;;;;;;5148316;27;38397;-76
2021/11/01 11:49:53;;;;;;;3.13;0.95;;;14.00;99.90;;;;;;5141928;27;48881;-75
2021/11/01 11:52:22;;;;;;;4.85;1.40;;;13.90;99.90;;;;;;5143197;27;38963;-73
2021/11/01 11:54:53;;;;;;;9.20;1.30;;;14.00;99.90;;;;;;5141786;27;38153;-76
2021/11/01 11:57:25;;;;;;;5.65;1.63;;;14.10;99.90;;;;;;5135563;27;36917;-76
2021/11/01 11:59:54;;;;;;;7.50;1.80;;;14.10;99.90;;;;;;5136894;27;38121;-78
2021/11/01 12:02:38;;;;;;;7.53;1.30;;;14.10;99.90;;;;;;5144426;27;39223;-77
2021/11/01 12:05:37;;;;;;;6.90;1.60;;;14.20;99.90;;;;;;5129891;27;38555;-76
2021/11/01 12:08:12;;;;;;;4.22;1.23;;;14.10;99.90;;;;;;5107669;27;38130;-76
2021/11/01 12:19:04;;;;;;;8.05;1.50;;;14.40;99.90;;;;;;5136255;27;49564;-74
2021/11/01 12:21:32;;;;;;;8.05;1.42;;;14.40;99.90;;;;;;5125795;27;47428;-76
2021/11/01 12:23:58;;;;;;;7.22;1.10;;;14.10;99.90;;;;;;5117196;27;37670;-77
2021/11/01 12:26:26;;;;;;;6.82;1.20;;;14.00;99.90;;;;;;5114627;27;38571;-75
2021/11/01 12:28:57;;;;;;;8.20;1.45;;;14.00;99.90;;;;;;5140401;27;38982;-76
2021/11/01 12:31:25;;;;;;;8.85;1.70;;;14.00;99.90;;;;;;5120406;27;36251;-76
2021/11/01 12:33:55;;;;;;;7.55;1.15;;;14.00;99.90;;;;;;5142951;27;38705;-76
2021/11/01 12:36:41;;;;;;;11.30;1.30;;;14.00;99.90;;;;;;5120463;27;37166;-76
2021/11/01 12:39:21;;;;;;;7.30;1.23;;;13.90;99.90;;;;;;5147670;27;37881;-75
2021/11/01 12:56:57;;;;;;;4.38;1.27;;;14.20;99.90;;;;;;5132002;27;48818;-76
2021/11/01 12:58:21;;;;;;;10.90;1.55;;;14.30;99.90;;;;;;5146329;27;39027;-75
2021/11/01 13:00:47;;;;;;;12.68;2.25;;;14.30;99.90;;;;;;5136241;27;38488;-75
2021/11/01 13:03:21;;;;;;;7.88;1.25;;;14.20;99.90;;;;;;5128183;27;37518;-75
2021/11/01 13:05:54;;;;;;;8.98;1.80;;;14.30;99.90;;;;;;5153659;27;40368;-74
2021/11/01 13:08:27;;;;;;;9.57;1.60;;;14.30;99.90;;;;;;5131614;27;38380;-73
2021/11/01 13:11:00;;;;;;;7.15;1.42;;;14.20;99.90;;;;;;5131190;27;37813;-74
2021/11/01 13:13:58;;;;;;;5.85;1.30;;;14.10;99.90;;;;;;5133323;27;40238;-74
2021/11/01 13:19:15;;;;;;;8.93;1.65;;;14.20;99.90;;;;;;5133416;27;39469;-73
2021/11/01 13:24:17;;;;;;;4.65;1.17;;;14.70;99.90;;;;;;5131384;27;37589;-73
2021/11/01 13:27:00;;;;;;;7.20;1.60;;;14.70;99.90;;;;;;5134632;27;39074;-74
2021/11/01 13:37:36;;;;;;;11.00;1.58;;;14.10;99.90;;;;;;5134126;27;48874;-75
2021/11/01 13:40:11;;;;;;;8.02;1.60;;;14.00;99.90;;;;;;5135377;27;38313;-78
2021/11/01 13:42:41;;;;;;;8.38;1.33;;;13.80;99.90;;;;;;5139368;27;47314;-75
2021/11/01 13:45:13;;;;;;;6.70;1.85;;;13.80;99.90;;;;;;5136147;27;35900;-74
2021/11/01 13:47:48;;;;;;;4.65;1.02;;;13.70;99.90;;;;;;5129656;27;37689;-74
2021/11/01 13:50:18;;;;;;;6.47;1.35;;;13.80;99.90;;;;;;5130297;27;38749;-74
2021/11/01 13:53:00;;;;;;;7.07;1.10;;;13.80;99.90;;;;;;5133777;27;38246;-74
2021/11/01 13:55:40;;;;;;;6.60;1.65;;;13.80;99.90;;;;;;5132553;27;38806;-75
2021/11/01 13:58:34;;;;;;;3.60;1.13;;;13.80;99.90;;;;;;5129877;27;38582;-75
2021/11/01 14:33:32;;;;;;;9.33;1.30;;;12.00;99.90;;;;;;5135016;27;38646;-73
2021/11/01 15:03:44;;;;;;;2.80;0.67;;;11.20;99.90;;;;;;5104630;27;48894;-74
2021/11/01 15:21:36;;;;;;;3.67;0.73;;;11.10;99.90;;;;;;5133856;27;37608;-74
2021/11/01 15:41:42;;;;;;;5.07;0.60;;;11.60;99.90;;;;;;5139684;27;38219;-75
2021/11/01 16:18:39;;;;;;;3.30;0.40;;;10.70;99.90;;;;;;5128029;27;38807;-75
2021/11/01 16:21:06;;;;;;;0.73;0.20;;;10.60;99.90;;;;;;5114400;27;38852;-73
2021/11/01 16:23:36;;;;;;;2.93;0.30;;;10.60;99.90;;;;;;5128139;27;39575;-74
2021/11/01 16:26:16;;;;;;;2.83;0.40;;;10.60;99.90;;;;;;5114107;27;37247;-74
2021/11/01 16:28:43;;;;;;;1.57;0.40;;;10.60;99.90;;;;;;5114340;27;39519;-73
2021/11/01 16:33:47;;;;;;;7.80;0.40;;;10.50;99.90;;;;;;5122504;27;38268;-73
2021/11/01 16:36:39;;;;;;;2.93;0.57;;;10.40;99.90;;;;;;5117638;27;36503;-73
2021/11/01 16:39:06;;;;;;;3.38;0.60;;;10.40;99.90;;;;;;5128304;27;37741;-73
2021/11/01 16:41:34;;;;;;;3.57;0.70;;;10.30;99.90;;;;;;5139480;27;38112;-73
2021/11/01 16:44:15;;;;;;;2.27;0.70;;;10.30;99.90;;;;;;5140736;27;38045;-73
2021/11/01 16:46:46;;;;;;;4.83;1.07;;;10.30;99.90;;;;;;5136277;27;47677;-73
2021/11/01 16:49:13;;;;;;;1.53;0.67;;;10.20;99.90;;;;;;5159807;27;38214;-73
2021/11/01 16:51:42;;;;;;;3.50;0.90;;;10.20;99.90;;;;;;5119574;27;39298;-74
2021/11/01 16:54:10;;;;;;;2.13;0.83;;;10.20;99.90;;;;;;5111115;27;37943;-73
2021/11/01 17:02:26;;;;;;;2.90;1.70;;;10.20;99.90;;;;;;5136763;27;38998;-73
2021/11/01 17:05:05;;;;;;;4.03;2.23;;;10.20;99.90;;;;;;5134938;27;38822;-72
2021/11/01 17:26:28;;;;;;;6.70;2.87;;;10.10;99.90;;;;;;5138053;27;38851;-74
2021/11/01 17:34:46;;;;;;;5.27;2.87;;;10.00;99.90;;;;;;5166286;27;38553;-74
2021/11/01 18:52:09;;;;;;;9.23;3.77;;;9.90;99.90;;;;;;5110648;27;39496;-74
2021/11/01 18:54:39;;;;;;;6.37;3.53;;;9.80;99.90;;;;;;5130302;27;38851;-74
2021/11/01 18:57:06;;;;;;;8.80;4.17;;;9.80;99.90;;;;;;5146915;27;37814;-74
2021/11/01 18:59:35;;;;;;;6.57;3.33;;;9.70;99.90;;;;;;5141181;27;38622;-74
2021/11/01 19:04:43;;;;;;;5.47;3.03;;;9.80;99.90;;;;;;5141626;27;38446;-73
2021/11/01 19:10:07;;;;;;;9.73;3.00;;;9.70;99.90;;;;;;5138225;27;39175;-73
2021/11/01 20:05:10;;;;;;;11.60;4.60;;;9.50;99.90;;;;;;5130900;27;40008;-73
2021/11/01 20:13:13;;;;;;;13.05;5.90;;;9.40;99.90;;;;;;5140547;27;37571;-74
2021/11/01 21:25:23;;;;;;;10.43;4.63;;;9.10;99.90;;;;;;5135487;27;39820;-74
2021/11/01 21:27:50;;;;;;;7.83;3.97;;;9.10;99.90;;;;;;5132067;27;37047;-77
2021/11/01 21:30:17;;;;;;;7.43;4.70;;;9.00;99.90;;;;;;5131120;27;36009;-75
2021/11/01 21:32:44;;;;;;;7.83;4.47;;;9.00;99.90;;;;;;5127219;27;39160;-75
2021/11/01 21:35:19;;;;;;;8.93;3.73;;;9.00;99.90;;;;;;5131488;27;39219;-74
2021/11/01 21:37:46;;;;;;;9.53;4.97;;;9.00;99.90;;;;;;5122839;27;37991;-74
2021/11/01 21:40:14;;;;;;;6.43;4.07;;;9.00;99.90;;;;;;5154031;27;38134;-74
2021/11/01 21:42:42;;;;;;;9.80;4.50;;;8.90;99.90;;;;;;5135660;27;39530;-74
2021/11/01 21:45:09;;;;;;;11.43;4.97;;;8.90;99.90;;;;;;5137175;27;38502;-74
2021/11/01 21:47:36;;;;;;;8.57;4.50;;;8.90;99.90;;;;;;5143085;27;38763;-74
2021/11/01 21:50:06;;;;;;;8.60;5.23;;;8.90;99.90;;;;;;5119913;27;38012;-75
2021/11/01 21:52:34;;;;;;;12.13;4.60;;;8.90;99.90;;;;;;5132514;27;47649;-74
2021/11/01 21:55:00;;;;;;;7.10;4.97;;;8.90;99.90;;;;;;5134631;27;38615;-74
2021/11/01 22:40:37;;;;;;;8.00;5.93;;;8.50;99.90;;;;;;5135437;27;38711;-74
2021/11/01 22:45:46;;;;;;;13.03;5.90;;;8.40;99.90;;;;;;5137302;27;40711;-74
2021/11/01 22:56:33;;;;;;;11.07;6.63;;;8.30;99.90;;;;;;5135389;27;39093;-73
2021/11/01 22:59:00;;;;;;;13.77;7.00;;;8.20;99.90;;;;;;5123196;27;37632;-73
2021/11/01 23:01:29;;;;;;;13.57;7.63;;;8.30;99.90;;;;;;5129568;27;39619;-73
2021/11/01 23:33:45;;;;;;;15.13;8.03;;;8.20;99.90;;;;;;5158013;27;49307;-73
2021/11/01 23:36:11;;;;;;;13.67;8.97;;;8.20;99.90;;;;;;5134891;27;36194;-73
2021/11/01 23:38:37;;;;;;;14.37;7.90;;;8.20;99.90;;;;;;5137133;27;38099;-74
2021/11/01 23:41:04;;;;;;;17.97;8.87;;;8.20;99.90;;;;;;5130804;27;37083;-73
2021/11/01 23:43:31;;;;;;;13.13;7.77;;;8.20;99.90;;;;;;5164600;27;38165;-73
2021/11/01 23:45:57;;;;;;;13.83;7.77;;;8.20;99.90;;;;;;5157369;27;36903;-73
2021/11/01 23:48:23;;;;;;;16.70;8.33;;;8.20;99.90;;;;;;5133338;27;37913;-73
2021/11/01 23:50:50;;;;;;;16.00;8.80;;;8.20;99.90;;;;;;5159807;27;39341;-73
2021/11/01 23:53:34;;;;;;;15.27;8.63;;;8.20;99.90;;;;;;5133008;27;37670;-73
2021/11/01 23:56:01;;;;;;;17.33;8.63;;;8.30;99.90;;;;;;5133559;27;36022;-73
2021/11/01 23:58:27;;;;;;;19.30;9.93;;;8.30;99.90;;;;;;5156877;27;46644;-73
